Woodcote, United Kingdom
Current Conditions -  °F | °C
As of 11:50 AM on Monday 26 Jan 2015 (Local Time) from EGOS Reporting Station
Broken Clouds Broken Clouds  
Wind Chill: 40°   Ceiling: 25000
Heat Index: 45°   Visibility: 6mi
Dew Point: 34°   Wind: 9mph
Humidity: 66%   Direction: 280°W
Pressure: 30.24"   Gusts: NA
Location:  52.73°N, 2.33°W
Report Text: EGOS 261150Z 28008KT 9999 FEW022 BKN250 07/01 Q1024 BLU NOSIG
Loading
Personal Weather Stations






























Interactive Weather Map New forecast layout! Learn more

10-Day Weather Forecast

Advertisements
Track Severe Weather on mobile